Time;durP1;ratioP1;P1;durP2;ratioP2;P2;SDS_P1;SDS_P2;PMS_P1;PMS_P2;Temp;Humidity;BMP_temperature;BMP_pressure;BME280_temperature;BME280_humidity;BME280_pressure;Samples;Min_cycle;Max_cycle;Signal;HPM_P1;HPM_P2
2022/03/18 00:07:48;;;;;;;5.73;4.40;;;10.20;90.10;;;;;;20835130;28;20231;-63
2022/03/18 00:17:51;;;;;;;10.00;4.40;;;10.10;90.10;;;;;;20834680;28;20211;-64
2022/03/18 00:27:52;;;;;;;5.67;4.73;;;10.10;90.40;;;;;;20834220;28;20235;-62
2022/03/18 00:37:54;;;;;;;6.23;4.60;;;10.00;90.00;;;;;;20832380;28;20211;-63
2022/03/18 00:58:16;;;;;;;6.03;4.70;;;9.90;90.50;;;;;;20832240;28;20211;-63
2022/03/18 01:08:18;;;;;;;6.53;4.87;;;9.90;90.60;;;;;;20830717;28;20292;-63
2022/03/18 01:18:20;;;;;;;7.77;5.13;;;;;;;;;;20841182;28;20201;-64
2022/03/18 01:28:23;;;;;;;6.93;4.83;;;9.90;90.70;;;;;;20908937;28;20605;-63
2022/03/18 01:38:24;;;;;;;8.27;5.10;;;9.90;90.70;;;;;;20912072;28;20555;-62
2022/03/18 01:48:26;;;;;;;7.03;5.20;;;9.80;90.80;;;;;;20912569;28;20281;-69
2022/03/18 01:58:28;;;;;;;10.63;5.37;;;9.80;90.70;;;;;;20912749;28;20260;-64
2022/03/18 02:08:29;;;;;;;8.83;5.50;;;9.80;91.00;;;;;;20914165;28;20238;-65
2022/03/18 02:18:31;;;;;;;8.47;5.33;;;9.90;91.00;;;;;;20923712;28;20215;-64
2022/03/18 02:28:33;;;;;;;7.60;5.00;;;9.80;90.70;;;;;;20913061;28;20239;-71
2022/03/18 02:38:34;;;;;;;7.67;5.70;;;9.80;90.60;;;;;;20910812;28;20360;-74
2022/03/18 02:48:36;;;;;;;7.77;5.60;;;9.80;90.40;;;;;;20910163;28;20297;-73
2022/03/18 02:58:38;;;;;;;8.63;5.37;;;9.80;90.70;;;;;;20917285;28;20218;-76
2022/03/18 03:08:40;;;;;;;7.03;5.53;;;9.80;90.30;;;;;;20924963;28;20271;-69
2022/03/18 03:18:42;;;;;;;9.43;5.27;;;9.80;90.20;;;;;;20913654;28;20214;-64
2022/03/18 03:28:45;;;;;;;11.27;5.80;;;9.80;90.40;;;;;;20838883;28;20229;-75
2022/03/18 03:38:46;;;;;;;8.57;4.60;;;9.80;90.00;;;;;;20840183;28;20241;-70
2022/03/18 03:48:48;;;;;;;7.73;4.80;;;9.80;89.80;;;;;;20840145;28;20634;-64
2022/03/18 03:58:50;;;;;;;8.53;5.17;;;9.80;89.50;;;;;;20839038;28;20613;-64
2022/03/18 04:08:51;;;;;;;9.93;4.97;;;9.80;89.40;;;;;;20837589;28;20598;-62
2022/03/18 04:18:53;;;;;;;9.27;5.63;;;9.80;89.10;;;;;;20837105;28;20204;-64
2022/03/18 04:28:55;;;;;;;6.87;4.57;;;9.80;88.80;;;;;;20836543;28;20239;-63
2022/03/18 04:44:50;;;;;;;8.87;4.83;;;9.80;88.30;;;;;;21067736;28;20278;-63
2022/03/18 04:54:52;;;;;;;8.17;5.20;;;9.90;89.00;;;;;;21066749;28;20721;-65
2022/03/18 05:04:54;;;;;;;8.97;4.60;;;9.80;87.80;;;;;;21066043;28;20252;-64
2022/03/18 05:14:55;;;;;;;8.43;4.90;;;9.80;88.40;;;;;;21065306;28;20645;-64
2022/03/18 05:24:58;;;;;;;7.30;4.17;;;9.80;87.70;;;;;;21005647;28;20624;-67
2022/03/18 05:35:00;;;;;;;9.37;3.87;;;9.70;87.60;;;;;;20979660;28;20209;-64
2022/03/18 05:45:02;;;;;;;8.90;4.67;;;9.80;88.30;;;;;;21063012;28;20218;-63
2022/03/18 05:55:04;;;;;;;10.53;4.47;;;9.80;87.30;;;;;;21012554;28;20615;-62
2022/03/18 06:05:06;;;;;;;8.80;4.50;;;9.70;87.10;;;;;;21008682;28;20578;-64
2022/03/18 06:15:08;;;;;;;12.43;4.90;;;9.70;87.70;;;;;;21005303;28;20323;-65
2022/03/18 06:25:10;;;;;;;9.73;4.53;;;9.80;87.10;;;;;;21004091;28;20222;-63
2022/03/18 06:35:11;;;;;;;11.50;4.47;;;9.80;86.70;;;;;;21002584;28;20231;-64
2022/03/18 06:45:17;;;;;;;12.47;4.70;;;9.80;87.20;;;;;;21001912;28;20213;-63
2022/03/18 06:55:18;;;;;;;13.80;4.97;;;9.90;85.90;;;;;;21000861;28;20283;-63
2022/03/18 07:05:20;;;;;;;17.03;5.30;;;9.90;85.40;;;;;;20998243;28;20284;-63
2022/03/18 07:15:22;;;;;;;12.97;5.23;;;9.90;86.00;;;;;;21000269;28;20692;-63
2022/03/18 07:25:24;;;;;;;14.70;5.60;;;10.00;83.70;;;;;;21041825;28;20206;-63
2022/03/18 07:35:26;;;;;;;12.33;5.53;;;10.10;83.20;;;;;;20981088;28;20227;-69
2022/03/18 07:45:32;;;;;;;17.47;7.03;;;10.10;82.80;;;;;;21042389;28;20215;-65
2022/03/18 07:55:36;;;;;;;15.47;6.87;;;10.20;82.90;;;;;;21001527;28;20667;-68
2022/03/18 08:05:40;;;;;;;11.47;6.20;;;10.30;82.10;;;;;;21023664;28;20235;-64
2022/03/18 08:15:44;;;;;;;15.80;5.90;;;;;;;;;;21082935;28;20229;-66
2022/03/18 08:25:46;;;;;;;11.40;5.27;;;10.40;80.40;;;;;;21015296;28;20617;-63
2022/03/18 08:35:48;;;;;;;9.80;4.90;;;10.50;79.30;;;;;;20993550;28;20337;-66
2022/03/18 08:45:51;;;;;;;14.60;5.37;;;10.60;78.50;;;;;;20994109;28;20207;-63
2022/03/18 08:55:54;;;;;;;12.60;4.63;;;10.60;78.10;;;;;;20993817;28;20231;-65
2022/03/18 09:05:56;;;;;;;16.30;4.77;;;10.70;78.10;;;;;;20992886;28;20261;-63
2022/03/18 09:15:58;;;;;;;14.60;4.67;;;10.90;77.10;;;;;;20992408;28;20711;-65
2022/03/18 09:26:00;;;;;;;11.10;4.73;;;11.00;76.70;;;;;;20999120;28;20251;-64
2022/03/18 09:36:02;;;;;;;9.40;4.60;;;11.10;76.70;;;;;;21007230;28;20703;-64
2022/03/18 09:46:05;;;;;;;11.73;5.03;;;11.40;76.70;;;;;;21007679;28;20218;-65
2022/03/18 09:56:27;;;;;;;26.50;5.47;;;11.50;76.40;;;;;;21008838;28;20707;-62
2022/03/18 10:06:29;;;;;;;13.97;4.97;;;11.60;75.90;;;;;;21006511;28;20214;-60
2022/03/18 10:16:36;;;;;;;22.70;9.50;;;11.80;75.00;;;;;;21005409;28;20702;-60
2022/03/18 10:26:38;;;;;;;10.80;5.20;;;11.90;75.20;;;;;;21004988;28;20222;-60
2022/03/18 10:47:05;;;;;;;11.73;5.13;;;11.90;75.40;;;;;;21001894;28;20212;-61
2022/03/18 10:57:07;;;;;;;12.60;5.60;;;12.70;76.80;;;;;;21001742;28;20698;-60
2022/03/18 11:17:30;;;;;;;11.57;5.70;;;;;;;;;;20999175;28;20242;-62
2022/03/18 11:27:36;;;;;;;11.83;5.63;;;13.30;74.90;;;;;;21061966;28;20205;-62
2022/03/18 11:37:38;;;;;;;15.63;6.53;;;;;;;;;;21062970;28;20246;-68
2022/03/18 11:47:41;;;;;;;15.63;6.03;;;13.70;73.40;;;;;;21062343;28;20214;-65
2022/03/18 11:58:29;;;;;;;14.60;6.87;;;13.60;72.50;;;;;;21080007;28;20230;-67
2022/03/18 12:08:50;;;;;;;12.70;6.63;;;13.50;72.00;;;;;;21078880;28;20573;-69
2022/03/18 12:18:59;;;;;;;13.03;6.20;;;13.40;71.20;;;;;;21056578;28;20224;-69
2022/03/18 12:29:02;;;;;;;11.87;6.37;;;13.40;71.80;;;;;;20999101;28;20210;-66
2022/03/18 12:39:09;;;;;;;11.67;6.50;;;13.50;71.00;;;;;;20994501;28;20324;-63
2022/03/18 12:49:12;;;;;;;10.53;6.90;;;13.90;70.60;;;;;;20993681;28;20210;-65
2022/03/18 12:59:17;;;;;;;12.80;8.43;;;13.90;70.00;;;;;;20997587;28;20637;-68
2022/03/18 13:09:19;;;;;;;11.00;8.23;;;13.90;70.20;;;;;;21009795;28;20221;-65
2022/03/18 13:19:36;;;;;;;14.93;8.70;;;13.90;69.40;;;;;;21027388;28;20306;-71
2022/03/18 13:40:13;;;;;;;15.27;10.33;;;14.20;70.20;;;;;;21007663;28;20239;-65
2022/03/18 13:50:16;;;;;;;16.53;9.93;;;14.50;69.00;;;;;;21006513;28;20210;-66
2022/03/18 14:00:28;;;;;;;17.90;10.23;;;14.60;69.60;;;;;;21005107;28;20314;-68
2022/03/18 14:10:41;;;;;;;18.00;10.87;;;14.60;67.40;;;;;;21004907;28;20256;-68
2022/03/18 14:20:52;;;;;;;20.67;13.23;;;14.90;66.10;;;;;;21006374;28;20226;-68
2022/03/18 14:30:56;;;;;;;21.57;13.07;;;15.10;65.10;;;;;;21003376;28;20195;-63
2022/03/18 14:43:13;;;;;;;25.53;14.70;;;16.00;63.00;;;;;;20984421;28;20550;-70
2022/03/18 14:53:17;;;;;;;22.27;14.67;;;16.00;62.00;;;;;;20981569;28;20210;-66
2022/03/18 15:03:19;;;;;;;32.93;18.63;;;16.40;61.70;;;;;;20982455;28;20216;-65
2022/03/18 15:13:21;;;;;;;24.17;16.40;;;16.00;61.00;;;;;;20979942;28;20269;-68
2022/03/18 15:23:23;;;;;;;24.50;16.47;;;15.50;61.90;;;;;;20980187;28;20272;-68
2022/03/18 15:33:25;;;;;;;23.17;14.93;;;15.70;61.60;;;;;;20979186;28;20208;-66
2022/03/18 15:43:27;;;;;;;24.13;14.20;;;15.60;62.20;;;;;;20979006;28;20631;-69
2022/03/18 15:53:30;;;;;;;24.80;14.67;;;15.40;62.50;;;;;;20929245;28;20217;-66
2022/03/18 16:03:31;;;;;;;23.33;14.33;;;14.80;62.80;;;;;;20922945;28;20545;-65
2022/03/18 16:13:33;;;;;;;24.97;15.33;;;14.40;63.90;;;;;;20922832;28;20212;-69
2022/03/18 16:23:37;;;;;;;25.70;15.50;;;14.00;65.10;;;;;;20891419;28;20208;-66
2022/03/18 16:33:41;;;;;;;28.00;16.10;;;13.80;65.80;;;;;;20837898;28;20252;-66
2022/03/18 16:43:43;;;;;;;30.70;17.83;;;13.60;66.40;;;;;;20837848;28;20225;-62
2022/03/18 16:53:46;;;;;;;34.23;19.27;;;13.30;66.30;;;;;;20836232;28;20335;-65
2022/03/18 17:03:48;;;;;;;29.20;17.50;;;13.00;66.50;;;;;;20835050;28;20267;-63
2022/03/18 17:13:50;;;;;;;31.83;19.13;;;12.80;66.60;;;;;;20835810;28;20236;-65
2022/03/18 17:23:52;;;;;;;31.43;19.70;;;12.50;66.80;;;;;;20843931;28;20210;-62
2022/03/18 17:33:53;;;;;;;34.27;19.23;;;12.20;67.20;;;;;;20903459;28;20319;-62
2022/03/18 17:43:58;;;;;;;30.83;19.10;;;12.00;67.90;;;;;;20914369;28;20237;-63
2022/03/18 17:53:59;;;;;;;30.93;20.20;;;11.90;68.20;;;;;;20912990;28;20239;-64
2022/03/18 18:04:05;;;;;;;30.90;19.57;;;11.60;68.80;;;;;;20912711;28;20209;-62
2022/03/18 18:14:09;;;;;;;33.60;19.20;;;11.60;69.70;;;;;;20912217;28;20235;-66
2022/03/18 18:24:11;;;;;;;33.30;20.57;;;11.50;70.20;;;;;;20910225;28;20739;-64
2022/03/18 18:34:13;;;;;;;34.40;19.40;;;11.40;70.00;;;;;;20888999;28;20240;-65
2022/03/18 18:44:20;;;;;;;34.40;19.73;;;11.20;70.40;;;;;;20885186;28;20208;-71
2022/03/18 18:54:21;;;;;;;32.50;18.87;;;11.10;70.50;;;;;;20839389;28;20228;-66
2022/03/18 19:04:23;;;;;;;34.00;19.13;;;11.00;71.10;;;;;;20836851;28;20200;-65
2022/03/18 19:14:25;;;;;;;32.60;19.73;;;10.80;71.50;;;;;;20909617;28;20242;-63
2022/03/18 19:24:28;;;;;;;30.93;19.80;;;10.80;71.80;;;;;;20916660;28;20210;-72
2022/03/18 19:34:30;;;;;;;29.00;18.70;;;10.70;72.00;;;;;;20847861;28;20246;-62
2022/03/18 19:53:33;;;;;;;30.37;17.63;;;10.50;72.60;;;;;;21151345;27;20559;-73
2022/03/18 20:03:35;;;;;;;31.63;17.77;;;10.50;72.70;;;;;;21148566;28;20206;-69
2022/03/18 20:13:39;;;;;;;28.67;18.27;;;10.50;73.30;;;;;;21147322;28;20220;-75
2022/03/18 20:23:41;;;;;;;27.60;18.47;;;10.40;72.60;;;;;;21146075;28;20206;-70
2022/03/18 20:33:43;;;;;;;29.30;18.17;;;10.30;72.80;;;;;;21144753;28;20209;-71
2022/03/18 20:43:44;;;;;;;39.97;18.50;;;10.10;72.80;;;;;;21132942;28;20259;-67
2022/03/18 20:53:46;;;;;;;29.67;18.20;;;10.10;73.00;;;;;;21109319;28;20213;-67
2022/03/18 21:03:48;;;;;;;30.90;19.17;;;10.10;73.10;;;;;;21034579;28;20647;-64
2022/03/18 21:13:55;;;;;;;29.33;19.33;;;10.00;73.20;;;;;;21003126;28;20211;-66
2022/03/18 21:23:58;;;;;;;32.93;19.33;;;10.00;73.40;;;;;;21002035;28;20615;-66
2022/03/18 21:33:59;;;;;;;33.80;20.87;;;9.90;74.60;;;;;;21060813;28;20229;-67
2022/03/18 21:44:02;;;;;;;38.37;20.30;;;9.80;74.90;;;;;;21084358;28;20283;-63
2022/03/18 21:54:06;;;;;;;34.10;20.40;;;9.80;75.00;;;;;;21084731;28;20205;-64
2022/03/18 22:04:08;;;;;;;34.07;20.50;;;9.70;75.10;;;;;;21083464;28;20250;-63
2022/03/18 22:14:10;;;;;;;33.77;20.40;;;9.60;75.30;;;;;;21082130;28;20213;-64
2022/03/18 22:25:14;;;;;;;35.47;20.90;;;9.50;75.50;;;;;;20981721;28;20578;-72
2022/03/18 22:35:16;;;;;;;34.63;20.17;;;9.40;75.50;;;;;;20980625;28;20217;-66
2022/03/18 22:45:20;;;;;;;30.50;20.80;;;9.20;75.70;;;;;;20979825;28;20289;-69
2022/03/18 22:55:22;;;;;;;36.00;19.10;;;9.20;75.90;;;;;;20979723;28;20211;-66
2022/03/18 23:05:24;;;;;;;35.37;18.37;;;9.20;76.10;;;;;;20981235;28;20209;-62
2022/03/18 23:15:26;;;;;;;30.07;17.87;;;9.10;76.00;;;;;;20977792;28;20685;-63
2022/03/18 23:25:27;;;;;;;27.07;17.13;;;9.10;76.60;;;;;;20978992;28;20205;-63
2022/03/18 23:35:29;;;;;;;29.13;16.93;;;9.10;76.20;;;;;;20923838;28;20272;-63
2022/03/18 23:45:31;;;;;;;26.27;15.13;;;9.00;76.10;;;;;;20924593;28;20214;-64
2022/03/18 23:55:34;;;;;;;28.20;15.93;;;9.00;76.60;;;;;;20921068;28;20218;-72
